Atlantic Companion — SKPE — position and weather

sailwx.info

Track history (hours):
 
Tides and Currents Weather Stations Pressure Air Temp Water Temp Dewpoint Dewpoint Depression Visibility Wind Speed Wind Dir Waves Ship Positions

Atlantic Companion

Last reported at 2015-Jun-30 17:33 UTC. Time now 2015-Jul-03 12:19 UTC.
Position N 44°27' W 063°29'.

Length 292 m; beam 32.3 m; draft 11.6 m.

Type: Cargo ship. MMSI: 265142000.

Date/timePositionNaut miles runAvg speedWind from/ knotsBaromVisibWave heightAir tempDewpointWater temp
2015-Jun-30 17:33N 44°27' W 063°29'1212.0
2015-Jun-30 16:33N 44°39' W 063°33'4 2.8
2015-Jun-30 15:19N 44°40' W 063°38'0 0.0
2015-Jun-30 14:31N 44°40' W 063°38'0 0.0
2015-Jun-30 13:19N 44°40' W 063°38'0 0.0
2015-Jun-30 12:31N 44°40' W 063°38'0 0.0
2015-Jun-30 11:31N 44°40' W 063°38'0 0.0
2015-Jun-30 10:19N 44°40' W 063°38'0 0.3
2015-Jun-30 09:33N 44°40' W 063°38'5 5.2
2015-Jun-30 08:34N 44°37' W 063°33'1211.7
2015-Jun-30 07:33N 44°26' W 063°26'31014.0
2015-Jun-29 09:27N 40°49' W 068°27'2714.0
2015-Jun-29 07:32N 40°35' W 068°58'1312.9
2015-Jun-29 06:31N 40°29' W 069°13'1412.6
2015-Jun-29 05:26N 40°27' W 069°31'1213.4
2015-Jun-29 04:33N 40°26' W 069°46'1413.9
2015-Jun-29 03:33N 40°26' W 070°04'1514.2
2015-Jun-29 02:32N 40°26' W 070°24'1414.4
2015-Jun-29 01:33N 40°25' W 070°42'1414.3
2015-Jun-29 00:33N 40°25' W 071°01'1414.4
2015-Jun-28 23:33N 40°24' W 071°20'1514.6
2015-Jun-28 22:33N 40°24' W 071°39'1514.9
2015-Jun-28 21:33N 40°23' W 071°58'1514.7
2015-Jun-28 20:33N 40°23' W 072°18'1414.2
2015-Jun-28 19:33N 40°23' W 072°36'1413.7
2015-Jun-28 18:33N 40°22' W 072°54'1413.9
2015-Jun-28 17:33N 40°22' W 073°12'1414.2
2015-Jun-28 16:33N 40°24' W 073°31'1413.9
2015-Jun-28 15:33N 40°26' W 073°49'1514.9
2015-Jun-28 14:34N 40°37' W 074°03'6 5.4
2015-Jun-28 13:32N 40°40' W 074°09'0 0.0
2015-Jun-28 12:32N 40°40' W 074°09'0 0.0
2015-Jun-28 11:32N 40°40' W 074°09'0 0.0
2015-Jun-28 10:32N 40°40' W 074°09'0 0.0
2015-Jun-28 09:32N 40°40' W 074°09'0 0.0
2015-Jun-28 08:32N 40°40' W 074°09'0 0.0
2015-Jun-28 07:32N 40°40' W 074°09'0 0.0
2015-Jun-28 06:32N 40°40' W 074°09'0 0.0
2015-Jun-28 05:32N 40°40' W 074°09'0 0.0
2015-Jun-28 04:32N 40°40' W 074°09'0 0.0
2015-Jun-28 03:32N 40°40' W 074°09'0 0.0
2015-Jun-28 02:32N 40°40' W 074°09'0 0.0
2015-Jun-28 01:32N 40°40' W 074°09'0 0.0
2015-Jun-28 00:32N 40°40' W 074°09'0 0.0
2015-Jun-27 23:33N 40°40' W 074°09'0 0.0
2015-Jun-27 22:33N 40°40' W 074°09'0 0.0
2015-Jun-27 21:33N 40°40' W 074°09'0 0.1
2015-Jun-27 20:33N 40°40' W 074°09'5 5.0
2015-Jun-27 19:33N 40°37' W 074°03'1515.2
2015-Jun-27 18:33N 40°27' W 073°48'1111.4
2015-Jun-27 17:33N 40°16' W 073°45'1413.8
2015-Jun-27 16:34N 40°02' W 073°44'1414.2
2015-Jun-27 15:34N 39°48' W 073°42'1413.9
2015-Jun-27 14:34N 39°35' W 073°47'1414.0
2015-Jun-27 13:33N 39°22' W 073°55'1414.0
2015-Jun-27 12:34N 39°09' W 074°02'1414.1
2015-Jun-27 11:33N 38°56' W 074°10'3015.2
2015-Jun-27 09:33N 38°29' W 074°26'1615.2
2015-Jun-27 08:30N 38°14' W 074°34'79 3.3
2015-Jun-26 08:32N 38°00' W 076°13'5016.3
2015-Jun-26 05:26N 38°50' W 076°24'2412.8
2015-Jun-26 03:33N 39°13' W 076°32'1 1.1
2015-Jun-26 02:32N 39°14' W 076°32'0 0.0
2015-Jun-26 01:32N 39°14' W 076°32'0 0.0
2015-Jun-26 00:32N 39°14' W 076°32'0 0.0
2015-Jun-25 23:32N 39°14' W 076°32'0 0.0
2015-Jun-25 22:32N 39°14' W 076°32'0 0.0
2015-Jun-25 21:32N 39°14' W 076°32'0 0.0
2015-Jun-25 20:32N 39°14' W 076°32'0 0.0
2015-Jun-25 19:29N 39°14' W 076°32'0 0.0
2015-Jun-25 18:32N 39°14' W 076°32'0 0.0
2015-Jun-25 17:32N 39°14' W 076°32'0 0.0
2015-Jun-25 16:32N 39°14' W 076°32'0 0.0
2015-Jun-25 15:32N 39°14' W 076°32'0 0.0
2015-Jun-25 14:26N 39°14' W 076°32'0 0.0
2015-Jun-25 13:32N 39°14' W 076°32'0 0.0
2015-Jun-25 12:32N 39°14' W 076°32'0 0.0
2015-Jun-25 11:29N 39°14' W 076°32'0 0.3
2015-Jun-25 10:34N 39°14' W 076°32'8 7.7
2015-Jun-25 09:33N 39°09' W 076°25'1515.4
2015-Jun-25 08:34N 38°54' W 076°24'112 5.9
2015-Jun-24 13:31N 39°19' W 074°04'1616.5
2015-Jun-24 12:33N 39°34' W 073°56'1616.4
2015-Jun-24 11:33N 39°49' W 073°51'1816.3
2015-Jun-24 10:28N 40°07' W 073°49'1516.8
2015-Jun-24 09:33N 40°22' W 073°49'1111.4
2015-Jun-24 08:33N 40°31' W 073°59'1010.0
2015-Jun-24 07:33N 40°39' W 074°07'2 1.6
2015-Jun-24 06:31N 40°40' W 074°09'0 0.0
2015-Jun-24 05:31N 40°40' W 074°09'0 0.0
2015-Jun-24 04:31N 40°40' W 074°09'0 0.0
2015-Jun-24 03:31N 40°40' W 074°09'0 0.0
2015-Jun-24 02:28N 40°40' W 074°09'0 0.0
2015-Jun-24 01:31N 40°40' W 074°09'0 0.0
2015-Jun-24 00:31N 40°40' W 074°09'0 0.0
2015-Jun-23 23:28N 40°40' W 074°09'0 0.0
2015-Jun-23 22:31N 40°40' W 074°09'0 0.0
2015-Jun-23 21:31N 40°40' W 074°09'0 0.0
2015-Jun-23 20:31N 40°40' W 074°09'0 0.0
2015-Jun-23 19:31N 40°40' W 074°09'0 0.0
2015-Jun-23 19:04N 40°40' W 074°09'0 0.0
2015-Jun-22 19:31N 40°40' W 074°09'0 0.0
2015-Jun-22 18:31N 40°40' W 074°09'0 0.0
2015-Jun-22 17:33N 40°40' W 074°09'2 2.2
2015-Jun-22 16:33N 40°42' W 074°09'0 0.0
2015-Jun-22 15:32N 40°42' W 074°09'0 0.0
2015-Jun-22 14:32N 40°42' W 074°09'0 0.0
2015-Jun-22 13:29N 40°42' W 074°09'0 0.0
2015-Jun-22 12:32N 40°42' W 074°09'0 0.0
2015-Jun-22 11:32N 40°42' W 074°09'0 0.1
2015-Jun-22 10:33N 40°42' W 074°09'3 3.4
2015-Jun-22 09:33N 40°39' W 074°06'8 8.1
2015-Jun-22 08:33N 40°32' W 074°01'1312.8
2015-Jun-22 07:33N 40°27' W 073°45'  
Track history (hours):
 
Tides and Currents Weather Stations Pressure Air Temp Water Temp Dewpoint Dewpoint Depression Visibility Wind Speed Wind Dir Waves Ship Positions

Atlantic Companion

Last reported at 2015-Jun-30 17:33 UTC. Time now 2015-Jul-03 12:19 UTC.
Position N 44°27' W 063°29'.

Length 292 m; beam 32.3 m; draft 11.6 m.

Type: Cargo ship. MMSI: 265142000.

Date/timePositionNaut miles runAvg speedWind from/ knotsBaromVisibWave heightAir tempDewpointWater temp
2015-Jun-30 17:33N 44°27' W 063°29'1212.0
2015-Jun-30 16:33N 44°39' W 063°33'4 2.8
2015-Jun-30 15:19N 44°40' W 063°38'0 0.0
2015-Jun-30 14:31N 44°40' W 063°38'0 0.0
2015-Jun-30 13:19N 44°40' W 063°38'0 0.0
2015-Jun-30 12:31N 44°40' W 063°38'0 0.0
2015-Jun-30 11:31N 44°40' W 063°38'0 0.0
2015-Jun-30 10:19N 44°40' W 063°38'0 0.3
2015-Jun-30 09:33N 44°40' W 063°38'5 5.2
2015-Jun-30 08:34N 44°37' W 063°33'1211.7
2015-Jun-30 07:33N 44°26' W 063°26'31014.0
2015-Jun-29 09:27N 40°49' W 068°27'2714.0
2015-Jun-29 07:32N 40°35' W 068°58'1312.9
2015-Jun-29 06:31N 40°29' W 069°13'1412.6
2015-Jun-29 05:26N 40°27' W 069°31'1213.4
2015-Jun-29 04:33N 40°26' W 069°46'1413.9
2015-Jun-29 03:33N 40°26' W 070°04'1514.2
2015-Jun-29 02:32N 40°26' W 070°24'1414.4
2015-Jun-29 01:33N 40°25' W 070°42'1414.3
2015-Jun-29 00:33N 40°25' W 071°01'1414.4
2015-Jun-28 23:33N 40°24' W 071°20'1514.6
2015-Jun-28 22:33N 40°24' W 071°39'1514.9
2015-Jun-28 21:33N 40°23' W 071°58'1514.7
2015-Jun-28 20:33N 40°23' W 072°18'1414.2
2015-Jun-28 19:33N 40°23' W 072°36'1413.7
2015-Jun-28 18:33N 40°22' W 072°54'1413.9
2015-Jun-28 17:33N 40°22' W 073°12'1414.2
2015-Jun-28 16:33N 40°24' W 073°31'1413.9
2015-Jun-28 15:33N 40°26' W 073°49'1514.9
2015-Jun-28 14:34N 40°37' W 074°03'6 5.4
2015-Jun-28 13:32N 40°40' W 074°09'0 0.0
2015-Jun-28 12:32N 40°40' W 074°09'0 0.0
2015-Jun-28 11:32N 40°40' W 074°09'0 0.0
2015-Jun-28 10:32N 40°40' W 074°09'0 0.0
2015-Jun-28 09:32N 40°40' W 074°09'0 0.0
2015-Jun-28 08:32N 40°40' W 074°09'0 0.0
2015-Jun-28 07:32N 40°40' W 074°09'0 0.0
2015-Jun-28 06:32N 40°40' W 074°09'0 0.0
2015-Jun-28 05:32N 40°40' W 074°09'0 0.0
2015-Jun-28 04:32N 40°40' W 074°09'0 0.0
2015-Jun-28 03:32N 40°40' W 074°09'0 0.0
2015-Jun-28 02:32N 40°40' W 074°09'0 0.0
2015-Jun-28 01:32N 40°40' W 074°09'0 0.0
2015-Jun-28 00:32N 40°40' W 074°09'0 0.0
2015-Jun-27 23:33N 40°40' W 074°09'0 0.0
2015-Jun-27 22:33N 40°40' W 074°09'0 0.0
2015-Jun-27 21:33N 40°40' W 074°09'0 0.1
2015-Jun-27 20:33N 40°40' W 074°09'5 5.0
2015-Jun-27 19:33N 40°37' W 074°03'1515.2
2015-Jun-27 18:33N 40°27' W 073°48'1111.4
2015-Jun-27 17:33N 40°16' W 073°45'1413.8
2015-Jun-27 16:34N 40°02' W 073°44'1414.2
2015-Jun-27 15:34N 39°48' W 073°42'1413.9
2015-Jun-27 14:34N 39°35' W 073°47'1414.0
2015-Jun-27 13:33N 39°22' W 073°55'1414.0
2015-Jun-27 12:34N 39°09' W 074°02'1414.1
2015-Jun-27 11:33N 38°56' W 074°10'3015.2
2015-Jun-27 09:33N 38°29' W 074°26'1615.2
2015-Jun-27 08:30N 38°14' W 074°34'79 3.3
2015-Jun-26 08:32N 38°00' W 076°13'5016.3
2015-Jun-26 05:26N 38°50' W 076°24'2412.8
2015-Jun-26 03:33N 39°13' W 076°32'1 1.1
2015-Jun-26 02:32N 39°14' W 076°32'0 0.0
2015-Jun-26 01:32N 39°14' W 076°32'0 0.0
2015-Jun-26 00:32N 39°14' W 076°32'0 0.0
2015-Jun-25 23:32N 39°14' W 076°32'0 0.0
2015-Jun-25 22:32N 39°14' W 076°32'0 0.0
2015-Jun-25 21:32N 39°14' W 076°32'0 0.0
2015-Jun-25 20:32N 39°14' W 076°32'0 0.0
2015-Jun-25 19:29N 39°14' W 076°32'0 0.0
2015-Jun-25 18:32N 39°14' W 076°32'0 0.0
2015-Jun-25 17:32N 39°14' W 076°32'0 0.0
2015-Jun-25 16:32N 39°14' W 076°32'0 0.0
2015-Jun-25 15:32N 39°14' W 076°32'0 0.0
2015-Jun-25 14:26N 39°14' W 076°32'0 0.0
2015-Jun-25 13:32N 39°14' W 076°32'0 0.0
2015-Jun-25 12:32N 39°14' W 076°32'0 0.0
2015-Jun-25 11:29N 39°14' W 076°32'0 0.3
2015-Jun-25 10:34N 39°14' W 076°32'8 7.7
2015-Jun-25 09:33N 39°09' W 076°25'1515.4
2015-Jun-25 08:34N 38°54' W 076°24'112 5.9
2015-Jun-24 13:31N 39°19' W 074°04'1616.5
2015-Jun-24 12:33N 39°34' W 073°56'1616.4
2015-Jun-24 11:33N 39°49' W 073°51'1816.3
2015-Jun-24 10:28N 40°07' W 073°49'1516.8
2015-Jun-24 09:33N 40°22' W 073°49'1111.4
2015-Jun-24 08:33N 40°31' W 073°59'1010.0
2015-Jun-24 07:33N 40°39' W 074°07'2 1.6
2015-Jun-24 06:31N 40°40' W 074°09'0 0.0
2015-Jun-24 05:31N 40°40' W 074°09'0 0.0
2015-Jun-24 04:31N 40°40' W 074°09'0 0.0
2015-Jun-24 03:31N 40°40' W 074°09'0 0.0
2015-Jun-24 02:28N 40°40' W 074°09'0 0.0
2015-Jun-24 01:31N 40°40' W 074°09'0 0.0
2015-Jun-24 00:31N 40°40' W 074°09'0 0.0
2015-Jun-23 23:28N 40°40' W 074°09'0 0.0
2015-Jun-23 22:31N 40°40' W 074°09'0 0.0
2015-Jun-23 21:31N 40°40' W 074°09'0 0.0
2015-Jun-23 20:31N 40°40' W 074°09'0 0.0
2015-Jun-23 19:31N 40°40' W 074°09'0 0.0
2015-Jun-23 19:04N 40°40' W 074°09'0 0.0
2015-Jun-22 19:31N 40°40' W 074°09'0 0.0
2015-Jun-22 18:31N 40°40' W 074°09'0 0.0
2015-Jun-22 17:33N 40°40' W 074°09'2 2.2
2015-Jun-22 16:33N 40°42' W 074°09'0 0.0
2015-Jun-22 15:32N 40°42' W 074°09'0 0.0
2015-Jun-22 14:32N 40°42' W 074°09'0 0.0
2015-Jun-22 13:29N 40°42' W 074°09'0 0.0
2015-Jun-22 12:32N 40°42' W 074°09'0 0.0
2015-Jun-22 11:32N 40°42' W 074°09'0 0.1
2015-Jun-22 10:33N 40°42' W 074°09'3 3.4
2015-Jun-22 09:33N 40°39' W 074°06'8 8.1
2015-Jun-22 08:33N 40°32' W 074°01'1312.8
2015-Jun-22 07:33N 40°27' W 073°45'  

Dump ship's entire track history